createdAt,value
2023-04-14T00:01:04.318Z,99298.52
2023-04-14T00:03:34.991Z,99298.45
2023-04-14T00:06:03.710Z,99300.95
2023-04-14T00:08:33.002Z,99301.27
2023-04-14T00:11:02.801Z,99305.94
2023-04-14T00:13:32.368Z,99304.02
2023-04-14T00:16:03.113Z,99304.94
2023-04-14T00:18:31.954Z,99295.91
2023-04-14T00:21:00.301Z,99298.77
2023-04-14T00:23:33.769Z,99296.77
2023-04-14T00:26:03.396Z,99299.25
2023-04-14T00:28:32.984Z,99299.12
2023-04-14T00:31:03.415Z,99297.17
2023-04-14T00:33:33.785Z,99299.59
2023-04-14T00:36:02.965Z,99302.52
2023-04-14T00:38:31.820Z,99302.61
2023-04-14T00:41:00.062Z,99302.04
2023-04-14T00:43:29.767Z,99303.77
2023-04-14T00:45:59.180Z,99301.19
2023-04-14T00:48:28.060Z,99304.21
2023-04-14T00:50:56.181Z,99299.87
2023-04-14T00:53:29.519Z,99300.29
2023-04-14T00:55:58.936Z,99303.00
2023-04-14T00:58:27.709Z,99304.58
2023-04-14T01:00:56.182Z,99306.17
2023-04-14T01:03:26.672Z,99309.71
2023-04-14T01:05:55.424Z,99311.11
2023-04-14T01:08:23.975Z,99309.81
2023-04-14T01:11:02.607Z,99312.89
2023-04-14T01:13:36.796Z,99304.05
2023-04-14T01:16:11.177Z,99306.11
2023-04-14T01:19:15.321Z,99305.93
2023-04-14T01:21:44.452Z,99310.27
2023-04-14T01:24:21.931Z,99315.06
2023-04-14T01:26:53.663Z,99317.45
2023-04-14T01:29:51.364Z,99316.05
2023-04-14T01:32:22.434Z,99315.44
2023-04-14T01:34:55.694Z,99315.32
2023-04-14T01:37:32.317Z,99317.77
2023-04-14T01:40:05.847Z,99314.73
2023-04-14T01:42:36.533Z,99316.91
2023-04-14T01:45:11.325Z,99321.20
2023-04-14T01:47:40.753Z,99315.14
2023-04-14T01:50:10.617Z,99322.73
2023-04-14T01:52:45.385Z,99319.42
2023-04-14T01:55:16.085Z,99318.19
2023-04-14T01:57:47.402Z,99317.39
2023-04-14T02:00:17.713Z,99320.86
2023-04-14T02:02:47.423Z,99322.48
2023-04-14T02:05:20.784Z,99322.45
2023-04-14T02:07:51.740Z,99321.97
2023-04-14T02:10:23.586Z,99322.88
2023-04-14T02:12:53.962Z,99323.95
2023-04-14T02:15:40.409Z,99326.33
2023-04-14T02:18:09.609Z,99322.95
2023-04-14T02:20:42.905Z,99329.23
2023-04-14T02:23:28.588Z,99331.05
2023-04-14T02:26:09.255Z,99332.38
2023-04-14T02:28:40.501Z,99331.71
2023-04-14T02:31:10.288Z,99335.20
2023-04-14T02:33:39.719Z,99335.99
2023-04-14T02:36:19.460Z,99340.09
2023-04-14T02:38:55.318Z,99345.43
2023-04-14T02:41:29.136Z,99352.20
2023-04-14T02:44:04.353Z,99352.48
2023-04-14T02:46:36.233Z,99356.02
2023-04-14T02:49:06.307Z,99358.72
2023-04-14T02:51:36.187Z,99357.48
2023-04-14T02:54:05.208Z,99360.55
2023-04-14T02:56:42.469Z,99365.71
2023-04-14T02:59:11.679Z,99366.24
2023-04-14T03:01:51.419Z,99367.37
2023-04-14T03:04:21.378Z,99362.95
2023-04-14T03:06:50.533Z,99369.70
2023-04-14T03:09:18.832Z,99373.17
2023-04-14T03:11:58.760Z,99379.84
2023-04-14T03:14:28.650Z,99380.66
2023-04-14T03:16:57.239Z,99381.20
2023-04-14T03:19:26.069Z,99386.73
2023-04-14T03:21:55.615Z,99389.60
2023-04-14T03:24:31.107Z,99391.75
2023-04-14T03:27:02.134Z,99388.84
2023-04-14T03:29:33.537Z,99390.73
2023-04-14T03:32:02.753Z,99391.17
2023-04-14T03:34:31.514Z,99392.11
2023-04-14T03:36:59.855Z,99392.90
2023-04-14T03:39:32.964Z,99393.59
2023-04-14T03:42:02.348Z,99396.44
2023-04-14T03:44:34.612Z,99398.58
2023-04-14T03:47:08.200Z,99397.19
2023-04-14T03:49:38.568Z,99404.61
2023-04-14T03:52:08.307Z,99402.48
2023-04-14T03:54:36.813Z,99401.95
2023-04-14T03:57:06.770Z,99407.09
2023-04-14T03:59:35.918Z,99410.70
2023-04-14T04:02:05.816Z,99411.38
2023-04-14T04:04:34.942Z,99415.05
2023-04-14T04:07:03.419Z,99415.85
2023-04-14T04:09:31.798Z,99415.17
2023-04-14T04:12:01.813Z,99416.31
2023-04-14T04:14:39.073Z,99417.28
2023-04-14T04:17:08.827Z,99415.83
2023-04-14T04:19:37.214Z,99416.02
2023-04-14T04:22:15.338Z,99415.08
2023-04-14T04:24:43.688Z,99416.44
2023-04-14T04:27:27.195Z,99419.54
2023-04-14T04:29:59.285Z,99422.65
2023-04-14T04:32:30.180Z,99421.76
2023-04-14T04:34:58.371Z,99422.37
2023-04-14T04:37:29.041Z,99422.70
2023-04-14T04:39:58.425Z,99420.67
2023-04-14T04:42:27.041Z,99423.73
2023-04-14T04:44:56.279Z,99429.71
2023-04-14T04:47:24.474Z,99433.45
2023-04-14T04:49:53.589Z,99437.66
2023-04-14T04:52:22.034Z,99437.50
2023-04-14T04:54:52.742Z,99443.45
2023-04-14T04:57:21.326Z,99445.14
2023-04-14T04:59:49.480Z,99446.79
2023-04-14T05:02:19.675Z,99453.70
2023-04-14T05:04:49.010Z,99452.42
2023-04-14T05:07:17.360Z,99456.37
2023-04-14T05:09:52.035Z,99460.45
2023-04-14T05:12:20.976Z,99461.80
2023-04-14T05:14:49.562Z,99461.20
2023-04-14T05:17:24.812Z,99462.25
2023-04-14T05:19:53.497Z,99465.02
2023-04-14T05:22:21.971Z,99468.56
2023-04-14T05:24:52.501Z,99470.49
2023-04-14T05:27:22.208Z,99473.95
2023-04-14T05:29:52.426Z,99472.38
2023-04-14T05:32:21.904Z,99480.09
2023-04-14T05:34:50.169Z,99484.48
2023-04-14T05:37:18.845Z,99483.98
2023-04-14T05:39:47.496Z,99482.44
2023-04-14T05:42:16.760Z,99486.70
2023-04-14T05:44:45.062Z,99487.23
2023-04-14T05:47:13.300Z,99489.14
2023-04-14T05:49:42.229Z,99490.56
2023-04-14T05:52:11.298Z,99493.67
2023-04-14T05:54:41.314Z,99494.14
2023-04-14T05:57:11.641Z,99493.61
2023-04-14T05:59:42.363Z,99495.05
2023-04-14T06:02:10.596Z,99499.10
2023-04-14T06:04:40.345Z,99501.34
2023-04-14T06:07:08.936Z,99503.36
2023-04-14T06:09:42.985Z,99506.75
2023-04-14T06:12:13.071Z,99512.27
2023-04-14T06:14:41.555Z,99514.48
2023-04-14T06:17:10.355Z,99514.42
2023-04-14T06:19:39.539Z,99516.60
2023-04-14T06:22:08.687Z,99520.84
2023-04-14T06:24:36.801Z,99525.52
2023-04-14T06:27:06.905Z,99530.11
2023-04-14T06:29:35.797Z,99530.86
2023-04-14T06:32:06.856Z,99533.27
2023-04-14T06:36:24.094Z,99534.21
2023-04-14T06:38:54.465Z,99534.05
2023-04-14T06:41:22.795Z,99539.15
2023-04-14T06:43:53.835Z,99539.13
2023-04-14T06:46:22.405Z,99540.73
2023-04-14T06:48:50.902Z,99541.05
2023-04-14T06:51:23.957Z,99543.64
2023-04-14T06:53:53.189Z,99548.42
2023-04-14T06:56:22.308Z,99548.23
2023-04-14T06:58:55.675Z,99551.69
2023-04-14T07:01:24.474Z,99551.47
2023-04-14T07:03:52.702Z,99555.76
2023-04-14T07:06:21.057Z,99558.46
2023-04-14T07:08:51.454Z,99557.95
2023-04-14T07:11:19.930Z,99561.37
2023-04-14T07:13:48.927Z,99560.16
2023-04-14T07:16:20.109Z,99563.47
2023-04-14T07:18:54.140Z,99562.51
2023-04-14T07:21:22.463Z,99566.00
2023-04-14T07:23:55.145Z,99569.02
2023-04-14T07:26:24.336Z,99568.89
2023-04-14T07:28:52.802Z,99572.14
2023-04-14T07:31:23.206Z,99573.59
2023-04-14T07:33:53.267Z,99571.11
2023-04-14T07:36:21.454Z,99575.67
2023-04-14T07:38:51.963Z,99572.66
2023-04-14T07:41:20.445Z,99574.11
2023-04-14T07:43:48.652Z,99575.54
2023-04-14T07:46:17.769Z,99575.36
2023-04-14T07:48:45.997Z,99572.59
2023-04-14T07:51:15.833Z,99571.69
2023-04-14T07:53:45.276Z,99573.80
2023-04-14T07:56:14.948Z,99573.82
2023-04-14T07:58:43.136Z,99575.89
2023-04-14T08:01:12.193Z,99576.98
2023-04-14T08:03:43.618Z,99576.95
2023-04-14T08:06:13.663Z,99576.79
2023-04-14T08:08:43.582Z,99578.98
2023-04-14T08:11:12.333Z,99579.04
2023-04-14T08:13:41.428Z,99579.20
2023-04-14T08:16:14.243Z,99577.69
2023-04-14T08:18:43.818Z,99584.27
2023-04-14T08:21:12.199Z,99588.41
2023-04-14T08:23:41.353Z,99583.48
2023-04-14T08:26:10.709Z,99587.09
2023-04-14T08:28:39.280Z,99589.76
2023-04-14T08:31:10.869Z,99590.20
2023-04-14T08:33:40.138Z,99595.93
2023-04-14T08:36:08.652Z,99598.01
2023-04-14T08:38:41.425Z,99596.45
2023-04-14T08:41:10.089Z,99598.52
2023-04-14T08:43:38.603Z,99597.25
2023-04-14T08:46:10.047Z,99595.17
2023-04-14T08:48:40.146Z,99592.45
2023-04-14T08:51:14.488Z,99593.25
2023-04-14T08:53:46.107Z,99592.71
2023-04-14T08:56:17.664Z,99590.66
2023-04-14T08:58:45.918Z,99591.75
2023-04-14T09:01:15.797Z,99587.84
2023-04-14T09:03:46.237Z,99582.98
2023-04-14T09:06:14.857Z,99584.19
2023-04-14T09:08:49.885Z,99589.02
2023-04-14T09:11:20.415Z,99591.52
2023-04-14T09:13:52.278Z,99596.32
2023-04-14T09:16:26.870Z,99602.88
2023-04-14T09:18:55.690Z,99603.35
2023-04-14T09:21:30.464Z,99605.04
2023-04-14T09:24:13.342Z,99600.08
2023-04-14T09:26:42.968Z,99602.04
2023-04-14T09:29:11.936Z,99598.48
2023-04-14T09:31:40.706Z,99599.60
2023-04-14T09:34:20.647Z,99604.58
2023-04-14T09:37:05.964Z,99608.68
2023-04-14T09:39:36.921Z,99610.27
2023-04-14T09:42:05.482Z,99609.40
2023-04-14T09:44:33.752Z,99607.93
2023-04-14T09:47:06.843Z,99606.09
2023-04-14T09:49:35.836Z,99610.45
2023-04-14T09:52:09.278Z,99613.48
2023-04-14T09:54:40.185Z,99617.49
2023-04-14T09:57:08.660Z,99622.71
2023-04-14T09:59:39.393Z,99621.45
2023-04-14T10:02:08.580Z,99626.09
2023-04-14T10:04:38.469Z,99626.86
2023-04-14T10:07:08.520Z,99627.21
2023-04-14T10:09:40.964Z,99626.50
2023-04-14T10:12:12.844Z,99626.84
2023-04-14T10:14:44.902Z,99631.33
2023-04-14T10:17:14.027Z,99631.45
2023-04-14T10:19:42.604Z,99639.70
2023-04-14T10:22:11.088Z,99637.92
2023-04-14T10:24:40.723Z,99637.63
2023-04-14T10:27:08.929Z,99644.71
2023-04-14T10:29:40.833Z,99647.34
2023-04-14T10:32:09.852Z,99651.09
2023-04-14T10:34:39.075Z,99648.58
2023-04-14T10:37:15.494Z,99652.21
2023-04-14T10:39:44.023Z,99652.90
2023-04-14T10:42:12.506Z,99655.64
2023-04-14T10:44:41.037Z,99658.35
2023-04-14T10:47:09.621Z,99663.78
2023-04-14T10:49:39.296Z,99663.36
2023-04-14T10:52:32.348Z,99668.09
2023-04-14T10:55:09.053Z,99665.31
2023-04-14T10:57:41.821Z,99664.70
2023-04-14T11:00:24.622Z,99664.55
2023-04-14T11:03:11.369Z,99667.93
2023-04-14T11:05:44.255Z,99671.95
2023-04-14T11:08:36.522Z,99670.58
2023-04-14T11:11:06.449Z,99673.51
2023-04-14T11:13:39.149Z,99676.44
2023-04-14T11:16:08.215Z,99674.50
2023-04-14T11:18:46.464Z,99672.29
2023-04-14T11:21:18.030Z,99674.26
2023-04-14T11:23:48.487Z,99674.67
2023-04-14T11:26:24.875Z,99674.89
2023-04-14T11:28:57.911Z,99676.33
2023-04-14T11:31:27.905Z,99679.80
2023-04-14T11:33:57.113Z,99681.78
2023-04-14T11:36:25.392Z,99681.44
2023-04-14T11:38:54.588Z,99684.70
2023-04-14T11:41:25.736Z,99683.45
2023-04-14T11:43:56.124Z,99689.27
2023-04-14T11:46:24.841Z,99689.85
2023-04-14T11:48:58.158Z,99685.54
2023-04-14T11:51:33.854Z,99685.81
2023-04-14T11:54:02.734Z,99687.01
2023-04-14T11:56:32.226Z,99681.83
2023-04-14T11:59:02.970Z,99680.46
2023-04-14T12:01:38.273Z,99677.51
2023-04-14T12:04:28.486Z,99672.03
2023-04-14T12:06:57.522Z,99668.98
2023-04-14T12:09:30.401Z,99671.27
2023-04-14T12:11:59.500Z,99674.92
2023-04-14T12:14:27.863Z,99663.12
2023-04-14T12:16:58.193Z,99667.13
2023-04-14T12:19:27.930Z,99664.83
2023-04-14T12:21:58.213Z,99665.77
2023-04-14T12:24:36.931Z,99666.69
2023-04-14T12:27:06.717Z,99667.84
2023-04-14T12:29:38.169Z,99669.05
2023-04-14T12:32:12.008Z,99667.16
2023-04-14T12:35:01.937Z,99666.22
2023-04-14T12:37:31.064Z,99665.52
2023-04-14T12:40:01.555Z,99667.29
2023-04-14T12:42:51.705Z,99668.83
2023-04-14T12:45:20.154Z,99670.70
2023-04-14T12:47:55.467Z,99668.23
2023-04-14T12:50:26.627Z,99670.88
2023-04-14T12:52:57.864Z,99673.08
2023-04-14T12:55:28.664Z,99673.79
2023-04-14T12:57:58.740Z,99671.31
2023-04-14T13:00:27.782Z,99671.00
2023-04-14T13:02:57.145Z,99671.64
2023-04-14T13:05:31.714Z,99668.70
2023-04-14T13:08:00.195Z,99663.17
2023-04-14T13:10:28.671Z,99666.72
2023-04-14T13:12:57.151Z,99664.02
2023-04-14T13:16:12.346Z,99663.01
2023-04-14T13:18:17.693Z,99665.77
2023-04-14T13:20:54.519Z,99666.33
2023-04-14T13:23:24.543Z,99669.70
2023-04-14T13:25:53.218Z,99672.73
2023-04-14T13:28:21.485Z,99677.15
2023-04-14T13:30:54.827Z,99676.52
2023-04-14T13:33:27.547Z,99674.14
2023-04-14T13:35:56.730Z,99670.36
2023-04-14T13:38:25.731Z,99669.38
2023-04-14T13:40:54.377Z,99672.34
2023-04-14T13:43:23.521Z,99676.39
2023-04-14T13:45:52.056Z,99677.08
2023-04-14T13:48:20.677Z,99675.96
2023-04-14T13:50:52.035Z,99678.42
2023-04-14T13:53:20.612Z,99673.59
2023-04-14T13:55:53.798Z,99677.11
2023-04-14T13:58:22.991Z,99678.40
2023-04-14T14:00:51.682Z,99680.38
2023-04-14T14:03:43.564Z,99683.88
2023-04-14T14:06:12.296Z,99688.70
2023-04-14T14:08:42.355Z,99685.13
2023-04-14T14:11:16.404Z,99688.13
2023-04-14T14:13:44.784Z,99685.04
2023-04-14T14:18:42.872Z,99693.66
2023-04-14T14:21:11.557Z,99701.64
2023-04-14T14:23:39.726Z,99715.22
2023-04-14T14:26:11.596Z,99714.13
2023-04-14T14:28:40.684Z,99715.27
2023-04-14T14:31:09.343Z,99714.88
2023-04-14T14:33:40.616Z,99721.27
2023-04-14T14:36:08.943Z,99716.55
2023-04-14T14:38:37.581Z,99721.66
2023-04-14T14:41:06.279Z,99720.80
2023-04-14T14:43:35.257Z,99722.77
2023-04-14T14:46:05.110Z,99726.45
2023-04-14T14:48:33.578Z,99730.73
2023-04-14T14:51:02.036Z,99736.27
2023-04-14T14:53:32.826Z,99742.34
2023-04-14T14:56:01.204Z,99744.70
2023-04-14T14:58:30.299Z,99747.35
2023-04-14T15:00:59.294Z,99754.00
2023-04-14T15:03:29.490Z,99756.38
2023-04-14T15:05:58.408Z,99758.08
2023-04-14T15:08:28.324Z,99759.46
2023-04-14T15:10:56.614Z,99762.65
2023-04-14T15:13:26.540Z,99765.96
2023-04-14T15:15:55.290Z,99768.33
2023-04-14T15:18:27.419Z,99767.91
2023-04-14T15:20:56.421Z,99765.91
2023-04-14T15:23:25.107Z,99770.90
2023-04-14T15:25:53.284Z,99779.63
2023-04-14T15:28:21.983Z,99780.27
2023-04-14T15:30:50.459Z,99783.36
2023-04-14T15:33:18.751Z,99781.96
2023-04-14T15:35:48.233Z,99785.09
2023-04-14T15:38:16.877Z,99792.55
2023-04-14T15:40:45.361Z,99793.84
2023-04-14T15:43:16.404Z,99794.64
2023-04-14T15:45:47.144Z,99798.15
2023-04-14T15:48:15.613Z,99798.48
2023-04-14T15:50:46.201Z,99798.66
2023-04-14T15:53:14.742Z,99797.33
2023-04-14T15:55:44.575Z,99805.84
2023-04-14T15:58:12.895Z,99805.05
2023-04-14T16:00:41.893Z,99807.09
2023-04-14T16:03:12.182Z,99805.02
2023-04-14T16:05:42.143Z,99815.41
2023-04-14T16:08:10.815Z,99814.98
2023-04-14T16:10:40.629Z,99821.84
2023-04-14T16:13:23.353Z,99822.87
2023-04-14T16:15:52.802Z,99824.02
2023-04-14T16:18:21.437Z,99827.91
2023-04-14T16:20:50.536Z,99832.55
2023-04-14T16:23:19.324Z,99836.98
2023-04-14T16:25:49.800Z,99845.70
2023-04-14T16:28:18.747Z,99845.39
2023-04-14T16:30:48.156Z,99846.86
2023-04-14T16:33:22.580Z,99852.41
2023-04-14T16:35:51.274Z,99855.24
2023-04-14T16:38:21.837Z,99852.25
2023-04-14T16:40:56.653Z,99861.28
2023-04-14T16:43:25.398Z,99862.29
2023-04-14T16:46:00.240Z,99859.54
2023-04-14T16:48:29.428Z,99861.84
2023-04-14T16:51:06.553Z,99861.55
2023-04-14T16:53:36.617Z,99861.66
2023-04-14T16:56:08.813Z,99864.46
2023-04-14T16:58:48.129Z,99872.15
2023-04-14T17:01:16.363Z,99869.39
2023-04-14T17:03:44.891Z,99872.90
2023-04-14T17:06:13.674Z,99876.80
2023-04-14T17:08:42.144Z,99882.52
2023-04-14T17:11:10.933Z,99880.33
2023-04-14T17:13:40.042Z,99880.34
2023-04-14T17:16:11.708Z,99883.95
2023-04-14T17:18:41.750Z,99886.91
2023-04-14T17:21:10.693Z,99887.96
2023-04-14T17:23:47.055Z,99893.21
2023-04-14T17:26:19.184Z,99894.52
2023-04-14T17:28:47.658Z,99899.56
2023-04-14T17:31:21.006Z,99901.39
2023-04-14T17:33:49.946Z,99900.52
2023-04-14T17:36:18.543Z,99897.95
2023-04-14T17:38:47.575Z,99902.04
2023-04-14T17:41:16.248Z,99905.60
2023-04-14T17:43:48.494Z,99909.84
2023-04-14T17:46:17.901Z,99907.31
2023-04-14T17:48:46.584Z,99911.92
2023-04-14T17:51:15.536Z,99911.88
2023-04-14T17:53:48.004Z,99915.23
2023-04-14T17:56:20.945Z,99919.05
2023-04-14T17:58:52.264Z,99921.30
2023-04-14T18:01:22.313Z,99922.83
2023-04-14T18:03:51.026Z,99922.16
2023-04-14T18:06:19.784Z,99923.99
2023-04-14T18:08:51.816Z,99924.89
2023-04-14T18:11:23.189Z,99923.08
2023-04-14T18:13:52.176Z,99923.30
2023-04-14T18:16:26.626Z,99928.76
2023-04-14T18:18:59.213Z,99932.16
2023-04-14T18:21:28.437Z,99929.18
2023-04-14T18:26:29.181Z,99931.67
2023-04-14T18:29:00.215Z,99932.80
2023-04-14T18:31:38.276Z,99933.31
2023-04-14T18:34:20.534Z,99934.02
2023-04-14T18:36:49.527Z,99934.10
2023-04-14T18:39:19.150Z,99932.64
2023-04-14T18:41:48.435Z,99933.48
2023-04-14T18:44:17.329Z,99936.64
2023-04-14T18:46:45.726Z,99936.55
2023-04-14T18:49:14.515Z,99930.80
2023-04-14T18:51:43.489Z,99936.06
2023-04-14T18:55:14.539Z,99937.10
2023-04-14T18:57:47.329Z,99939.65
2023-04-14T19:00:18.779Z,99937.27
2023-04-14T19:02:48.861Z,99937.77
2023-04-14T19:05:17.383Z,99937.89
2023-04-14T19:07:45.858Z,99938.25
2023-04-14T19:10:14.445Z,99939.06
2023-04-14T19:12:43.047Z,99933.48
2023-04-14T19:15:12.219Z,99931.81
2023-04-14T19:17:40.624Z,99927.70
2023-04-14T19:20:10.429Z,99925.70
2023-04-14T19:22:39.985Z,99921.98
2023-04-14T19:25:08.914Z,99922.58
2023-04-14T19:27:40.255Z,99921.12
2023-04-14T19:30:10.544Z,99924.42
2023-04-14T19:32:38.999Z,99925.55
2023-04-14T19:35:08.683Z,99919.95
2023-04-14T19:37:37.159Z,99919.34
2023-04-14T19:40:06.636Z,99920.21
2023-04-14T19:42:36.886Z,99924.45
2023-04-14T19:45:08.041Z,99923.57
2023-04-14T19:47:36.760Z,99925.20
2023-04-14T19:50:05.300Z,99926.30
2023-04-14T19:52:33.885Z,99927.05
2023-04-14T19:55:02.895Z,99926.55
2023-04-14T19:57:34.742Z,99927.81
2023-04-14T20:00:07.578Z,99929.38
2023-04-14T20:02:42.477Z,99927.08
2023-04-14T20:05:11.923Z,99927.83
2023-04-14T20:07:45.561Z,99926.30
2023-04-14T20:10:14.566Z,99926.31
2023-04-14T20:12:43.143Z,99929.74
2023-04-14T20:15:13.364Z,99926.84
2023-04-14T20:17:43.093Z,99929.73
2023-04-14T20:20:13.410Z,99934.81
2023-04-14T20:22:41.783Z,99937.88
2023-04-14T20:25:10.777Z,99941.73
2023-04-14T20:27:39.257Z,99943.15
2023-04-14T20:30:08.294Z,99948.42
2023-04-14T20:32:37.687Z,99946.92
2023-04-14T20:35:08.522Z,99952.16
2023-04-14T20:37:36.979Z,99957.14
2023-04-14T20:40:07.943Z,99958.66
2023-04-14T20:42:37.116Z,99964.02
2023-04-14T20:45:06.625Z,99966.42
2023-04-14T20:47:35.526Z,99968.39
2023-04-14T20:50:05.250Z,99969.49
2023-04-14T20:52:35.531Z,99972.79
2023-04-14T20:55:05.875Z,99967.38
2023-04-14T20:57:35.792Z,99968.46
2023-04-14T21:00:05.451Z,99972.09
2023-04-14T21:02:34.282Z,99970.17
2023-04-14T21:05:04.431Z,99971.35
2023-04-14T21:07:38.652Z,99976.79
2023-04-14T21:10:10.706Z,99980.91
2023-04-14T21:13:54.329Z,99979.83
2023-04-14T21:15:53.643Z,99986.89
2023-04-14T21:18:20.953Z,99994.71
2023-04-14T21:20:50.715Z,100001.63
2023-04-14T21:23:22.258Z,100009.38
2023-04-14T21:25:51.148Z,100011.15
2023-04-14T21:28:21.572Z,100017.60
2023-04-14T21:30:54.572Z,100022.96
2023-04-14T21:33:22.931Z,100027.79
2023-04-14T21:35:51.533Z,100034.67
2023-04-14T21:38:21.089Z,100045.29
2023-04-14T21:40:49.331Z,100045.19
2023-04-14T21:43:18.197Z,100049.88
2023-04-14T21:45:46.697Z,100052.34
2023-04-14T21:48:15.349Z,100056.39
2023-04-14T21:50:44.191Z,100060.15
2023-04-14T21:53:12.643Z,100061.39
2023-04-14T21:55:42.916Z,100067.28
2023-04-14T21:58:11.174Z,100068.84
2023-04-14T22:00:42.009Z,100072.80
2023-04-14T22:03:12.110Z,100072.39
2023-04-14T22:05:41.443Z,100078.39
2023-04-14T22:08:12.486Z,100082.63
2023-04-14T22:10:43.690Z,100088.92
2023-04-14T22:13:11.943Z,100088.10
2023-04-14T22:15:43.212Z,100088.67
2023-04-14T22:18:14.968Z,100096.29
2023-04-14T22:20:45.419Z,100097.19
2023-04-14T22:23:13.802Z,100095.31
2023-04-14T22:25:48.203Z,100095.05
2023-04-14T22:28:16.514Z,100096.32
2023-04-14T22:30:45.266Z,100102.19
2023-04-14T22:33:15.189Z,100100.96
2023-04-14T22:35:44.187Z,100102.26
2023-04-14T22:38:12.671Z,100103.41
2023-04-14T22:40:42.585Z,100102.91
2023-04-14T22:43:11.264Z,100105.36
2023-04-14T22:45:40.325Z,100106.80
2023-04-14T22:48:10.977Z,100110.77
2023-04-14T22:50:39.561Z,100107.34
2023-04-14T22:53:08.405Z,100106.73
2023-04-14T22:55:38.117Z,100104.82
2023-04-14T22:58:06.603Z,100105.83
2023-04-14T23:00:36.313Z,100105.20
2023-04-14T23:03:04.990Z,100099.28
2023-04-14T23:05:33.541Z,100097.58
2023-04-14T23:08:02.017Z,100098.67
2023-04-14T23:10:33.996Z,100096.83
2023-04-14T23:13:02.577Z,100093.21
2023-04-14T23:15:32.444Z,100091.32
2023-04-14T23:18:02.525Z,100091.31
2023-04-14T23:20:32.446Z,100089.93
2023-04-14T23:23:00.923Z,100092.39
2023-04-14T23:25:30.803Z,100089.93
2023-04-14T23:27:59.909Z,100090.58
2023-04-14T23:30:29.031Z,100093.97
2023-04-14T23:33:00.172Z,100095.86
2023-04-14T23:35:32.462Z,100095.70
2023-04-14T23:38:02.588Z,100093.27
2023-04-14T23:40:32.298Z,100091.91
2023-04-14T23:43:01.364Z,100089.53
2023-04-14T23:45:37.138Z,100089.76
2023-04-14T23:48:06.824Z,100087.16
2023-04-14T23:50:59.525Z,100091.08
2023-04-14T23:53:25.518Z,100087.60
2023-04-14T23:55:53.983Z,100088.97
2023-04-14T23:58:26.894Z,100089.45
